sensor_id;sensor_type;location;lat;lon;timestamp;temperature;humidity
66920;DHT22;53831;52.090;17.026;2022-12-20T00:00:36;1.90;99.90
66920;DHT22;53831;52.090;17.026;2022-12-20T00:01:37;1.90;99.90
66920;DHT22;53831;52.090;17.026;2022-12-20T00:02:38;1.90;99.90
66920;DHT22;53831;52.090;17.026;2022-12-20T00:03:39;1.90;99.90
66920;DHT22;53831;52.090;17.026;2022-12-20T00:04:40;1.80;99.90
66920;DHT22;53831;52.090;17.026;2022-12-20T00:05:41;1.80;99.90
66920;DHT22;53831;52.090;17.026;2022-12-20T00:06:42;1.80;99.90
66920;DHT22;53831;52.090;17.026;2022-12-20T00:07:43;1.80;99.90
66920;DHT22;53831;52.090;17.026;2022-12-20T00:08:51;1.80;99.90
66920;DHT22;53831;52.090;17.026;2022-12-20T00:09:52;1.80;99.90
66920;DHT22;53831;52.090;17.026;2022-12-20T00:10:53;1.80;99.90
66920;DHT22;53831;52.090;17.026;2022-12-20T00:11:53;1.80;99.90
66920;DHT22;53831;52.090;17.026;2022-12-20T00:12:54;1.90;99.90
66920;DHT22;53831;52.090;17.026;2022-12-20T00:13:56;1.90;99.90
66920;DHT22;53831;52.090;17.026;2022-12-20T00:14:57;1.90;99.90
66920;DHT22;53831;52.090;17.026;2022-12-20T00:16:12;1.90;99.90
66920;DHT22;53831;52.090;17.026;2022-12-20T00:17:12;1.90;99.90
66920;DHT22;53831;52.090;17.026;2022-12-20T00:18:13;1.90;99.90
66920;DHT22;53831;52.090;17.026;2022-12-20T00:19:14;1.90;99.90
66920;DHT22;53831;52.090;17.026;2022-12-20T00:20:15;1.90;99.90
66920;DHT22;53831;52.090;17.026;2022-12-20T00:21:16;1.90;99.90
66920;DHT22;53831;52.090;17.026;2022-12-20T00:22:16;1.90;99.90
66920;DHT22;53831;52.090;17.026;2022-12-20T00:23:17;1.90;99.90
66920;DHT22;53831;52.090;17.026;2022-12-20T00:24:18;1.90;99.90
66920;DHT22;53831;52.090;17.026;2022-12-20T00:25:19;1.90;99.90
66920;DHT22;53831;52.090;17.026;2022-12-20T00:26:21;1.80;99.90
66920;DHT22;53831;52.090;17.026;2022-12-20T00:27:22;1.80;99.90
66920;DHT22;53831;52.090;17.026;2022-12-20T00:28:23;1.80;99.90
66920;DHT22;53831;52.090;17.026;2022-12-20T00:29:23;1.80;99.90
66920;DHT22;53831;52.090;17.026;2022-12-20T00:30:24;1.90;99.90
66920;DHT22;53831;52.090;17.026;2022-12-20T00:31:26;1.80;99.90
66920;DHT22;53831;52.090;17.026;2022-12-20T00:32:27;1.80;99.90
66920;DHT22;53831;52.090;17.026;2022-12-20T00:33:28;1.80;99.90
66920;DHT22;53831;52.090;17.026;2022-12-20T00:34:29;1.80;99.90
66920;DHT22;53831;52.090;17.026;2022-12-20T00:35:30;1.80;99.90
66920;DHT22;53831;52.090;17.026;2022-12-20T00:36:32;1.80;99.90
66920;DHT22;53831;52.090;17.026;2022-12-20T00:37:33;1.70;99.90
66920;DHT22;53831;52.090;17.026;2022-12-20T00:38:34;1.70;99.90
66920;DHT22;53831;52.090;17.026;2022-12-20T00:39:35;1.70;99.90
66920;DHT22;53831;52.090;17.026;2022-12-20T00:40:36;1.70;99.90
66920;DHT22;53831;52.090;17.026;2022-12-20T00:41:37;1.70;99.90
66920;DHT22;53831;52.090;17.026;2022-12-20T00:42:37;1.60;99.90
66920;DHT22;53831;52.090;17.026;2022-12-20T00:43:39;1.60;99.90
66920;DHT22;53831;52.090;17.026;2022-12-20T00:44:40;1.60;99.90
66920;DHT22;53831;52.090;17.026;2022-12-20T00:45:41;1.50;99.90
66920;DHT22;53831;52.090;17.026;2022-12-20T00:46:41;1.50;99.90
66920;DHT22;53831;52.090;17.026;2022-12-20T00:47:43;1.60;99.90
66920;DHT22;53831;52.090;17.026;2022-12-20T00:48:44;1.50;99.90
66920;DHT22;53831;52.090;17.026;2022-12-20T00:49:45;1.60;99.90
66920;DHT22;53831;52.090;17.026;2022-12-20T00:50:46;1.60;99.90
66920;DHT22;53831;52.090;17.026;2022-12-20T00:51:47;1.50;99.90
66920;DHT22;53831;52.090;17.026;2022-12-20T00:52:48;1.50;99.90
66920;DHT22;53831;52.090;17.026;2022-12-20T00:53:49;1.50;99.90
66920;DHT22;53831;52.090;17.026;2022-12-20T00:54:50;1.50;99.90
66920;DHT22;53831;52.090;17.026;2022-12-20T00:55:51;1.50;99.90
66920;DHT22;53831;52.090;17.026;2022-12-20T00:56:52;1.50;99.90
66920;DHT22;53831;52.090;17.026;2022-12-20T00:57:53;1.40;99.90
66920;DHT22;53831;52.090;17.026;2022-12-20T00:58:54;1.50;99.90
66920;DHT22;53831;52.090;17.026;2022-12-20T00:59:55;1.50;99.90
66920;DHT22;53831;52.090;17.026;2022-12-20T01:00:55;1.50;99.90
66920;DHT22;53831;52.090;17.026;2022-12-20T01:01:57;1.50;99.90
66920;DHT22;53831;52.090;17.026;2022-12-20T01:02:57;1.50;99.90
66920;DHT22;53831;52.090;17.026;2022-12-20T01:03:58;1.50;99.90
66920;DHT22;53831;52.090;17.026;2022-12-20T01:04:59;1.50;99.90
66920;DHT22;53831;52.090;17.026;2022-12-20T01:06:01;1.50;99.90
66920;DHT22;53831;52.090;17.026;2022-12-20T01:07:02;1.50;99.90
66920;DHT22;53831;52.090;17.026;2022-12-20T01:08:03;1.50;99.90
66920;DHT22;53831;52.090;17.026;2022-12-20T01:09:04;1.50;99.90
66920;DHT22;53831;52.090;17.026;2022-12-20T01:10:05;1.50;99.90
66920;DHT22;53831;52.090;17.026;2022-12-20T01:12:15;1.50;99.90
66920;DHT22;53831;52.090;17.026;2022-12-20T01:13:15;1.50;99.90
66920;DHT22;53831;52.090;17.026;2022-12-20T01:14:16;1.50;99.90
66920;DHT22;53831;52.090;17.026;2022-12-20T01:15:17;1.50;99.90
66920;DHT22;53831;52.090;17.026;2022-12-20T01:16:22;1.50;99.90
66920;DHT22;53831;52.090;17.026;2022-12-20T01:17:23;1.50;99.90
66920;DHT22;53831;52.090;17.026;2022-12-20T01:18:24;1.60;99.90
66920;DHT22;53831;52.090;17.026;2022-12-20T01:19:24;1.60;99.90
66920;DHT22;53831;52.090;17.026;2022-12-20T01:20:25;1.60;99.90
66920;DHT22;53831;52.090;17.026;2022-12-20T01:21:27;1.60;99.90
66920;DHT22;53831;52.090;17.026;2022-12-20T01:22:28;1.60;99.90
66920;DHT22;53831;52.090;17.026;2022-12-20T01:23:29;1.70;99.90
66920;DHT22;53831;52.090;17.026;2022-12-20T01:24:30;1.70;99.90
66920;DHT22;53831;52.090;17.026;2022-12-20T01:25:30;1.70;99.90
66920;DHT22;53831;52.090;17.026;2022-12-20T01:26:31;1.70;99.90
66920;DHT22;53831;52.090;17.026;2022-12-20T01:27:31;1.70;99.90
66920;DHT22;53831;52.090;17.026;2022-12-20T01:28:32;1.80;99.90
66920;DHT22;53831;52.090;17.026;2022-12-20T01:29:33;1.80;99.90
66920;DHT22;53831;52.090;17.026;2022-12-20T01:30:33;1.80;99.90
66920;DHT22;53831;52.090;17.026;2022-12-20T01:31:34;1.80;99.90
66920;DHT22;53831;52.090;17.026;2022-12-20T01:32:35;1.80;99.90
66920;DHT22;53831;52.090;17.026;2022-12-20T01:33:36;1.90;99.90
66920;DHT22;53831;52.090;17.026;2022-12-20T01:34:37;1.90;99.90
66920;DHT22;53831;52.090;17.026;2022-12-20T01:35:37;1.90;99.90
66920;DHT22;53831;52.090;17.026;2022-12-20T01:36:38;1.90;99.90
66920;DHT22;53831;52.090;17.026;2022-12-20T01:37:39;1.90;99.90
66920;DHT22;53831;52.090;17.026;2022-12-20T01:38:40;1.90;99.90
66920;DHT22;53831;52.090;17.026;2022-12-20T01:39:40;1.90;99.90
66920;DHT22;53831;52.090;17.026;2022-12-20T01:40:41;1.90;99.90
66920;DHT22;53831;52.090;17.026;2022-12-20T01:41:44;2.00;99.90
66920;DHT22;53831;52.090;17.026;2022-12-20T01:42:45;2.00;99.90
66920;DHT22;53831;52.090;17.026;2022-12-20T01:43:57;2.00;99.90
66920;DHT22;53831;52.090;17.026;2022-12-20T01:44:58;2.00;99.90
66920;DHT22;53831;52.090;17.026;2022-12-20T01:45:59;2.00;99.90
66920;DHT22;53831;52.090;17.026;2022-12-20T01:47:00;2.00;99.90
66920;DHT22;53831;52.090;17.026;2022-12-20T01:48:00;2.00;99.90
66920;DHT22;53831;52.090;17.026;2022-12-20T01:50:10;2.00;99.90
66920;DHT22;53831;52.090;17.026;2022-12-20T01:51:11;2.00;99.90
66920;DHT22;53831;52.090;17.026;2022-12-20T01:52:20;2.00;99.90
66920;DHT22;53831;52.090;17.026;2022-12-20T01:53:23;2.00;99.90
66920;DHT22;53831;52.090;17.026;2022-12-20T01:54:35;2.00;99.90
66920;DHT22;53831;52.090;17.026;2022-12-20T01:55:38;2.00;99.90
66920;DHT22;53831;52.090;17.026;2022-12-20T01:56:39;2.00;99.90
66920;DHT22;53831;52.090;17.026;2022-12-20T01:57:51;2.10;99.90
66920;DHT22;53831;52.090;17.026;2022-12-20T01:58:55;2.10;99.90
66920;DHT22;53831;52.090;17.026;2022-12-20T01:59:56;2.10;99.90
66920;DHT22;53831;52.090;17.026;2022-12-20T02:00:57;2.00;99.90
66920;DHT22;53831;52.090;17.026;2022-12-20T02:02:00;2.00;99.90
66920;DHT22;53831;52.090;17.026;2022-12-20T02:03:05;2.00;99.90
66920;DHT22;53831;52.090;17.026;2022-12-20T02:04:07;2.10;99.90
66920;DHT22;53831;52.090;17.026;2022-12-20T02:05:08;2.10;99.90
66920;DHT22;53831;52.090;17.026;2022-12-20T02:06:17;2.10;99.90
66920;DHT22;53831;52.090;17.026;2022-12-20T02:07:23;2.10;99.90
66920;DHT22;53831;52.090;17.026;2022-12-20T02:08:25;2.10;99.90
66920;DHT22;53831;52.090;17.026;2022-12-20T02:09:26;2.10;99.90
66920;DHT22;53831;52.090;17.026;2022-12-20T02:10:28;2.10;99.90
66920;DHT22;53831;52.090;17.026;2022-12-20T02:13:18;2.10;99.90
66920;DHT22;53831;52.090;17.026;2022-12-20T02:15:54;2.10;99.90
66920;DHT22;53831;52.090;17.026;2022-12-20T02:21:18;2.10;99.90
66920;DHT22;53831;52.090;17.026;2022-12-20T02:22:25;2.00;99.90
66920;DHT22;53831;52.090;17.026;2022-12-20T02:24:08;2.00;99.90
66920;DHT22;53831;52.090;17.026;2022-12-20T02:30:44;2.00;99.90
66920;DHT22;53831;52.090;17.026;2022-12-20T02:33:06;2.10;99.90
66920;DHT22;53831;52.090;17.026;2022-12-20T02:34:09;2.10;99.90
66920;DHT22;53831;52.090;17.026;2022-12-20T02:35:13;2.10;99.90
66920;DHT22;53831;52.090;17.026;2022-12-20T02:36:16;2.10;99.90
66920;DHT22;53831;52.090;17.026;2022-12-20T02:37:18;2.10;99.90
66920;DHT22;53831;52.090;17.026;2022-12-20T02:38:33;2.10;99.90
66920;DHT22;53831;52.090;17.026;2022-12-20T02:39:36;2.10;99.90
66920;DHT22;53831;52.090;17.026;2022-12-20T02:40:40;2.10;99.90
66920;DHT22;53831;52.090;17.026;2022-12-20T02:41:46;2.10;99.90
66920;DHT22;53831;52.090;17.026;2022-12-20T02:42:53;2.20;99.90
66920;DHT22;53831;52.090;17.026;2022-12-20T02:44:04;2.10;99.90
66920;DHT22;53831;52.090;17.026;2022-12-20T02:45:28;2.20;99.90
66920;DHT22;53831;52.090;17.026;2022-12-20T02:46:31;2.20;99.90
66920;DHT22;53831;52.090;17.026;2022-12-20T02:47:36;2.20;99.90
66920;DHT22;53831;52.090;17.026;2022-12-20T02:48:40;2.20;99.90
66920;DHT22;53831;52.090;17.026;2022-12-20T02:49:42;2.10;99.90
66920;DHT22;53831;52.090;17.026;2022-12-20T02:50:49;2.20;99.90
66920;DHT22;53831;52.090;17.026;2022-12-20T02:51:52;2.20;99.90
66920;DHT22;53831;52.090;17.026;2022-12-20T02:52:54;2.20;99.90
66920;DHT22;53831;52.090;17.026;2022-12-20T02:53:57;2.20;99.90
66920;DHT22;53831;52.090;17.026;2022-12-20T02:54:59;2.20;99.90
66920;DHT22;53831;52.090;17.026;2022-12-20T02:57:48;2.20;99.90
66920;DHT22;53831;52.090;17.026;2022-12-20T02:58:56;2.20;99.90
66920;DHT22;53831;52.090;17.026;2022-12-20T03:01:18;2.10;99.90
66920;DHT22;53831;52.090;17.026;2022-12-20T03:02:22;2.20;99.90
66920;DHT22;53831;52.090;17.026;2022-12-20T03:03:22;2.10;99.90
66920;DHT22;53831;52.090;17.026;2022-12-20T03:04:28;2.10;99.90
66920;DHT22;53831;52.090;17.026;2022-12-20T03:05:32;2.10;99.90
66920;DHT22;53831;52.090;17.026;2022-12-20T03:06:34;2.10;99.90
66920;DHT22;53831;52.090;17.026;2022-12-20T03:07:35;2.10;99.90
66920;DHT22;53831;52.090;17.026;2022-12-20T03:08:36;2.10;99.90
66920;DHT22;53831;52.090;17.026;2022-12-20T03:09:39;2.10;99.90
66920;DHT22;53831;52.090;17.026;2022-12-20T03:10:40;2.10;99.90
66920;DHT22;53831;52.090;17.026;2022-12-20T03:11:41;2.20;99.90
66920;DHT22;53831;52.090;17.026;2022-12-20T03:12:42;2.10;99.90
66920;DHT22;53831;52.090;17.026;2022-12-20T03:13:42;2.20;99.90
66920;DHT22;53831;52.090;17.026;2022-12-20T03:14:43;2.20;99.90
66920;DHT22;53831;52.090;17.026;2022-12-20T03:15:46;2.20;99.90
66920;DHT22;53831;52.090;17.026;2022-12-20T03:16:46;2.20;99.90
66920;DHT22;53831;52.090;17.026;2022-12-20T03:17:47;2.20;99.90
66920;DHT22;53831;52.090;17.026;2022-12-20T03:18:47;2.20;99.90
66920;DHT22;53831;52.090;17.026;2022-12-20T03:19:48;2.20;99.90
66920;DHT22;53831;52.090;17.026;2022-12-20T03:20:49;2.20;99.90
66920;DHT22;53831;52.090;17.026;2022-12-20T03:21:50;2.30;99.90
66920;DHT22;53831;52.090;17.026;2022-12-20T03:22:51;2.20;99.90
66920;DHT22;53831;52.090;17.026;2022-12-20T03:23:52;2.30;99.90
66920;DHT22;53831;52.090;17.026;2022-12-20T03:24:52;2.20;99.90
66920;DHT22;53831;52.090;17.026;2022-12-20T03:25:53;2.10;99.90
66920;DHT22;53831;52.090;17.026;2022-12-20T03:27:04;2.10;99.90
66920;DHT22;53831;52.090;17.026;2022-12-20T03:28:05;2.20;99.90
66920;DHT22;53831;52.090;17.026;2022-12-20T03:29:06;2.20;99.90
66920;DHT22;53831;52.090;17.026;2022-12-20T03:30:07;2.20;99.90
66920;DHT22;53831;52.090;17.026;2022-12-20T03:31:10;2.10;99.90
66920;DHT22;53831;52.090;17.026;2022-12-20T03:32:20;2.10;99.90
66920;DHT22;53831;52.090;17.026;2022-12-20T03:33:20;2.10;99.90
66920;DHT22;53831;52.090;17.026;2022-12-20T03:34:21;2.00;99.90
66920;DHT22;53831;52.090;17.026;2022-12-20T03:35:22;2.00;99.90
66920;DHT22;53831;52.090;17.026;2022-12-20T03:36:23;2.00;99.90
66920;DHT22;53831;52.090;17.026;2022-12-20T03:37:28;2.00;99.90
66920;DHT22;53831;52.090;17.026;2022-12-20T03:38:29;2.00;99.90
66920;DHT22;53831;52.090;17.026;2022-12-20T03:39:29;2.00;99.90
66920;DHT22;53831;52.090;17.026;2022-12-20T03:40:30;2.00;99.90
66920;DHT22;53831;52.090;17.026;2022-12-20T03:41:31;2.00;99.90
66920;DHT22;53831;52.090;17.026;2022-12-20T03:42:31;2.00;99.90
66920;DHT22;53831;52.090;17.026;2022-12-20T03:43:32;1.90;99.90
66920;DHT22;53831;52.090;17.026;2022-12-20T03:44:33;2.00;99.90
66920;DHT22;53831;52.090;17.026;2022-12-20T03:45:35;1.90;99.90
66920;DHT22;53831;52.090;17.026;2022-12-20T03:46:35;1.90;99.90
66920;DHT22;53831;52.090;17.026;2022-12-20T03:47:38;1.90;99.90
66920;DHT22;53831;52.090;17.026;2022-12-20T03:48:39;1.90;99.90
66920;DHT22;53831;52.090;17.026;2022-12-20T03:49:42;1.90;99.90
66920;DHT22;53831;52.090;17.026;2022-12-20T03:50:43;1.90;99.90
66920;DHT22;53831;52.090;17.026;2022-12-20T03:51:43;1.80;99.90
66920;DHT22;53831;52.090;17.026;2022-12-20T03:52:44;1.80;99.90
66920;DHT22;53831;52.090;17.026;2022-12-20T03:53:45;1.80;99.90
66920;DHT22;53831;52.090;17.026;2022-12-20T03:54:47;1.80;99.90
66920;DHT22;53831;52.090;17.026;2022-12-20T03:55:52;1.90;99.90
66920;DHT22;53831;52.090;17.026;2022-12-20T03:56:53;1.80;99.90
66920;DHT22;53831;52.090;17.026;2022-12-20T03:57:54;1.80;99.90
66920;DHT22;53831;52.090;17.026;2022-12-20T03:59:00;1.80;99.90
66920;DHT22;53831;52.090;17.026;2022-12-20T04:00:02;1.90;99.90
66920;DHT22;53831;52.090;17.026;2022-12-20T04:01:14;1.90;99.90
66920;DHT22;53831;52.090;17.026;2022-12-20T04:02:17;1.80;99.90
66920;DHT22;53831;52.090;17.026;2022-12-20T04:03:18;1.90;99.90
66920;DHT22;53831;52.090;17.026;2022-12-20T04:04:18;1.90;99.90
66920;DHT22;53831;52.090;17.026;2022-12-20T04:05:19;1.90;99.90
66920;DHT22;53831;52.090;17.026;2022-12-20T04:06:21;1.90;99.90
66920;DHT22;53831;52.090;17.026;2022-12-20T04:07:22;1.90;99.90
66920;DHT22;53831;52.090;17.026;2022-12-20T04:08:22;2.00;99.90
66920;DHT22;53831;52.090;17.026;2022-12-20T04:09:24;2.00;99.90
66920;DHT22;53831;52.090;17.026;2022-12-20T04:10:30;2.00;99.90
66920;DHT22;53831;52.090;17.026;2022-12-20T04:11:31;2.00;99.90
66920;DHT22;53831;52.090;17.026;2022-12-20T04:12:40;2.00;99.90
66920;DHT22;53831;52.090;17.026;2022-12-20T04:13:48;2.10;99.90
66920;DHT22;53831;52.090;17.026;2022-12-20T04:14:49;2.00;99.90
66920;DHT22;53831;52.090;17.026;2022-12-20T04:15:50;2.10;99.90
66920;DHT22;53831;52.090;17.026;2022-12-20T04:16:52;2.00;99.90
66920;DHT22;53831;52.090;17.026;2022-12-20T04:17:56;2.10;99.90
66920;DHT22;53831;52.090;17.026;2022-12-20T04:18:59;2.10;99.90
66920;DHT22;53831;52.090;17.026;2022-12-20T04:20:05;2.10;99.90
66920;DHT22;53831;52.090;17.026;2022-12-20T04:21:28;2.10;99.90
66920;DHT22;53831;52.090;17.026;2022-12-20T04:22:31;2.10;99.90
66920;DHT22;53831;52.090;17.026;2022-12-20T04:23:38;2.10;99.90
66920;DHT22;53831;52.090;17.026;2022-12-20T04:24:40;2.20;99.90
66920;DHT22;53831;52.090;17.026;2022-12-20T04:25:56;2.20;99.90
66920;DHT22;53831;52.090;17.026;2022-12-20T04:26:57;2.20;99.90
66920;DHT22;53831;52.090;17.026;2022-12-20T04:27:58;2.20;99.90
66920;DHT22;53831;52.090;17.026;2022-12-20T04:28:59;2.20;99.90
66920;DHT22;53831;52.090;17.026;2022-12-20T04:30:00;2.20;99.90
66920;DHT22;53831;52.090;17.026;2022-12-20T04:31:01;2.10;99.90
66920;DHT22;53831;52.090;17.026;2022-12-20T04:32:04;2.20;99.90
66920;DHT22;53831;52.090;17.026;2022-12-20T04:33:04;2.20;99.90
66920;DHT22;53831;52.090;17.026;2022-12-20T04:34:06;2.30;99.90
66920;DHT22;53831;52.090;17.026;2022-12-20T04:35:08;2.20;99.90
66920;DHT22;53831;52.090;17.026;2022-12-20T04:36:14;2.30;99.90
66920;DHT22;53831;52.090;17.026;2022-12-20T04:37:15;2.20;99.90
66920;DHT22;53831;52.090;17.026;2022-12-20T04:38:26;2.20;99.90
66920;DHT22;53831;52.090;17.026;2022-12-20T04:39:27;2.30;99.90
66920;DHT22;53831;52.090;17.026;2022-12-20T04:40:49;2.30;99.90
66920;DHT22;53831;52.090;17.026;2022-12-20T04:41:50;2.30;99.90
66920;DHT22;53831;52.090;17.026;2022-12-20T04:42:51;2.30;99.90
66920;DHT22;53831;52.090;17.026;2022-12-20T04:43:56;2.30;99.90
66920;DHT22;53831;52.090;17.026;2022-12-20T04:45:03;2.30;99.90
66920;DHT22;53831;52.090;17.026;2022-12-20T04:46:04;2.30;99.90
66920;DHT22;53831;52.090;17.026;2022-12-20T04:47:05;2.30;99.90
66920;DHT22;53831;52.090;17.026;2022-12-20T04:48:06;2.30;99.90
66920;DHT22;53831;52.090;17.026;2022-12-20T04:49:11;2.40;99.90
66920;DHT22;53831;52.090;17.026;2022-12-20T04:50:14;2.30;99.90
66920;DHT22;53831;52.090;17.026;2022-12-20T04:51:17;2.40;99.90
66920;DHT22;53831;52.090;17.026;2022-12-20T04:52:18;2.40;99.90
66920;DHT22;53831;52.090;17.026;2022-12-20T04:53:37;2.40;99.90
66920;DHT22;53831;52.090;17.026;2022-12-20T04:54:46;2.40;99.90
66920;DHT22;53831;52.090;17.026;2022-12-20T04:55:52;2.40;99.90
66920;DHT22;53831;52.090;17.026;2022-12-20T04:56:52;2.40;99.90
66920;DHT22;53831;52.090;17.026;2022-12-20T04:57:56;2.40;99.90
66920;DHT22;53831;52.090;17.026;2022-12-20T04:58:57;2.40;99.90
66920;DHT22;53831;52.090;17.026;2022-12-20T04:59:58;2.50;99.90
66920;DHT22;53831;52.090;17.026;2022-12-20T05:00:59;2.40;99.90
66920;DHT22;53831;52.090;17.026;2022-12-20T05:02:03;2.40;99.90
66920;DHT22;53831;52.090;17.026;2022-12-20T05:03:21;2.40;99.90
66920;DHT22;53831;52.090;17.026;2022-12-20T05:04:22;2.40;99.90
66920;DHT22;53831;52.090;17.026;2022-12-20T05:05:23;2.40;99.90
66920;DHT22;53831;52.090;17.026;2022-12-20T05:06:27;2.50;99.90
66920;DHT22;53831;52.090;17.026;2022-12-20T05:07:28;2.50;99.90
66920;DHT22;53831;52.090;17.026;2022-12-20T05:08:30;2.50;99.90
66920;DHT22;53831;52.090;17.026;2022-12-20T05:09:31;2.50;99.90
66920;DHT22;53831;52.090;17.026;2022-12-20T05:10:31;2.50;99.90
66920;DHT22;53831;52.090;17.026;2022-12-20T05:11:35;2.50;99.90
66920;DHT22;53831;52.090;17.026;2022-12-20T05:12:38;2.50;99.90
66920;DHT22;53831;52.090;17.026;2022-12-20T05:13:40;2.50;99.90
66920;DHT22;53831;52.090;17.026;2022-12-20T05:14:41;2.50;99.90
66920;DHT22;53831;52.090;17.026;2022-12-20T05:15:43;2.50;99.90
66920;DHT22;53831;52.090;17.026;2022-12-20T05:16:46;2.50;99.90
66920;DHT22;53831;52.090;17.026;2022-12-20T05:17:47;2.50;99.90
66920;DHT22;53831;52.090;17.026;2022-12-20T05:18:48;2.50;99.90
66920;DHT22;53831;52.090;17.026;2022-12-20T05:19:49;2.50;99.90
66920;DHT22;53831;52.090;17.026;2022-12-20T05:20:50;2.50;99.90
66920;DHT22;53831;52.090;17.026;2022-12-20T05:22:11;2.50;99.90
66920;DHT22;53831;52.090;17.026;2022-12-20T05:23:41;2.50;99.90
66920;DHT22;53831;52.090;17.026;2022-12-20T05:25:02;2.50;99.90
66920;DHT22;53831;52.090;17.026;2022-12-20T05:26:25;2.50;99.90
66920;DHT22;53831;52.090;17.026;2022-12-20T05:27:26;2.50;99.90
66920;DHT22;53831;52.090;17.026;2022-12-20T05:28:27;2.50;99.90
66920;DHT22;53831;52.090;17.026;2022-12-20T05:29:27;2.50;99.90
66920;DHT22;53831;52.090;17.026;2022-12-20T05:30:29;2.60;99.90
66920;DHT22;53831;52.090;17.026;2022-12-20T05:31:30;2.60;99.90
66920;DHT22;53831;52.090;17.026;2022-12-20T05:32:31;2.60;99.90
66920;DHT22;53831;52.090;17.026;2022-12-20T05:33:32;2.60;99.90
66920;DHT22;53831;52.090;17.026;2022-12-20T05:34:34;2.60;99.90
66920;DHT22;53831;52.090;17.026;2022-12-20T05:35:35;2.60;99.90
66920;DHT22;53831;52.090;17.026;2022-12-20T05:36:40;2.60;99.90
66920;DHT22;53831;52.090;17.026;2022-12-20T05:37:42;2.60;99.90
66920;DHT22;53831;52.090;17.026;2022-12-20T05:38:49;2.50;99.90
66920;DHT22;53831;52.090;17.026;2022-12-20T05:39:52;2.50;99.90
66920;DHT22;53831;52.090;17.026;2022-12-20T05:40:56;2.50;99.90
66920;DHT22;53831;52.090;17.026;2022-12-20T05:41:56;2.50;99.90
66920;DHT22;53831;52.090;17.026;2022-12-20T05:42:59;2.60;99.90
66920;DHT22;53831;52.090;17.026;2022-12-20T05:44:08;2.60;99.90
66920;DHT22;53831;52.090;17.026;2022-12-20T05:45:12;2.60;99.90
66920;DHT22;53831;52.090;17.026;2022-12-20T05:46:27;2.60;99.90
66920;DHT22;53831;52.090;17.026;2022-12-20T05:47:33;2.60;99.90
66920;DHT22;53831;52.090;17.026;2022-12-20T05:48:39;2.60;99.90
66920;DHT22;53831;52.090;17.026;2022-12-20T05:49:42;2.60;99.90
66920;DHT22;53831;52.090;17.026;2022-12-20T05:50:44;2.60;99.90
66920;DHT22;53831;52.090;17.026;2022-12-20T05:52:01;2.60;99.90
66920;DHT22;53831;52.090;17.026;2022-12-20T05:53:01;2.60;99.90
66920;DHT22;53831;52.090;17.026;2022-12-20T05:54:02;2.60;99.90
66920;DHT22;53831;52.090;17.026;2022-12-20T05:55:16;2.70;99.90
66920;DHT22;53831;52.090;17.026;2022-12-20T05:56:17;2.60;99.90
66920;DHT22;53831;52.090;17.026;2022-12-20T05:57:18;2.60;99.90
66920;DHT22;53831;52.090;17.026;2022-12-20T05:58:20;2.60;99.90
66920;DHT22;53831;52.090;17.026;2022-12-20T05:59:27;2.60;99.90
66920;DHT22;53831;52.090;17.026;2022-12-20T06:00:28;2.60;99.90
66920;DHT22;53831;52.090;17.026;2022-12-20T06:01:29;2.60;99.90
66920;DHT22;53831;52.090;17.026;2022-12-20T06:02:32;2.50;99.90
66920;DHT22;53831;52.090;17.026;2022-12-20T06:03:37;2.50;99.90
66920;DHT22;53831;52.090;17.026;2022-12-20T06:04:41;2.40;99.90
66920;DHT22;53831;52.090;17.026;2022-12-20T06:05:51;2.40;99.90
66920;DHT22;53831;52.090;17.026;2022-12-20T06:06:58;2.30;99.90
66920;DHT22;53831;52.090;17.026;2022-12-20T06:08:04;2.30;99.90
66920;DHT22;53831;52.090;17.026;2022-12-20T06:09:05;2.30;99.90
66920;DHT22;53831;52.090;17.026;2022-12-20T06:10:12;2.20;99.90
66920;DHT22;53831;52.090;17.026;2022-12-20T06:11:31;2.20;99.90
66920;DHT22;53831;52.090;17.026;2022-12-20T06:12:37;2.20;99.90
66920;DHT22;53831;52.090;17.026;2022-12-20T06:13:37;2.20;99.90
66920;DHT22;53831;52.090;17.026;2022-12-20T06:14:38;2.10;99.90
66920;DHT22;53831;52.090;17.026;2022-12-20T06:15:39;2.10;99.90
66920;DHT22;53831;52.090;17.026;2022-12-20T06:16:40;2.10;99.90
66920;DHT22;53831;52.090;17.026;2022-12-20T06:17:43;2.10;99.90
66920;DHT22;53831;52.090;17.026;2022-12-20T06:18:44;2.10;99.90
66920;DHT22;53831;52.090;17.026;2022-12-20T06:19:46;2.10;99.90
66920;DHT22;53831;52.090;17.026;2022-12-20T06:20:50;2.10;99.90
66920;DHT22;53831;52.090;17.026;2022-12-20T06:21:55;2.10;99.90
66920;DHT22;53831;52.090;17.026;2022-12-20T06:23:17;2.00;99.90
66920;DHT22;53831;52.090;17.026;2022-12-20T06:24:26;2.00;99.90
66920;DHT22;53831;52.090;17.026;2022-12-20T06:25:28;2.00;99.90
66920;DHT22;53831;52.090;17.026;2022-12-20T06:26:28;2.00;99.90
66920;DHT22;53831;52.090;17.026;2022-12-20T06:27:36;2.00;99.90
66920;DHT22;53831;52.090;17.026;2022-12-20T06:28:54;2.00;99.90
66920;DHT22;53831;52.090;17.026;2022-12-20T06:30:03;1.90;99.90
66920;DHT22;53831;52.090;17.026;2022-12-20T06:31:14;1.90;99.90
66920;DHT22;53831;52.090;17.026;2022-12-20T06:32:18;1.90;99.90
66920;DHT22;53831;52.090;17.026;2022-12-20T06:33:19;1.90;99.90
66920;DHT22;53831;52.090;17.026;2022-12-20T06:34:21;1.90;99.90
66920;DHT22;53831;52.090;17.026;2022-12-20T06:35:22;1.90;99.90
66920;DHT22;53831;52.090;17.026;2022-12-20T06:36:24;1.90;99.90
66920;DHT22;53831;52.090;17.026;2022-12-20T06:37:25;1.80;99.90
66920;DHT22;53831;52.090;17.026;2022-12-20T06:38:26;1.80;99.90
66920;DHT22;53831;52.090;17.026;2022-12-20T06:39:27;1.90;99.90
66920;DHT22;53831;52.090;17.026;2022-12-20T06:40:35;1.90;99.90
66920;DHT22;53831;52.090;17.026;2022-12-20T06:41:36;1.90;99.90
66920;DHT22;53831;52.090;17.026;2022-12-20T06:42:37;1.90;99.90
66920;DHT22;53831;52.090;17.026;2022-12-20T06:43:38;1.90;99.90
66920;DHT22;53831;52.090;17.026;2022-12-20T06:44:38;1.80;99.90
66920;DHT22;53831;52.090;17.026;2022-12-20T06:45:39;1.80;99.90
66920;DHT22;53831;52.090;17.026;2022-12-20T06:46:40;1.70;99.90
66920;DHT22;53831;52.090;17.026;2022-12-20T06:47:40;1.70;99.90
66920;DHT22;53831;52.090;17.026;2022-12-20T06:48:41;1.70;99.90
66920;DHT22;53831;52.090;17.026;2022-12-20T06:49:44;1.70;99.90
66920;DHT22;53831;52.090;17.026;2022-12-20T06:50:53;1.70;99.90
66920;DHT22;53831;52.090;17.026;2022-12-20T06:51:54;1.70;99.90
66920;DHT22;53831;52.090;17.026;2022-12-20T06:53:01;1.70;99.90
66920;DHT22;53831;52.090;17.026;2022-12-20T06:54:02;1.70;99.90
66920;DHT22;53831;52.090;17.026;2022-12-20T06:55:06;1.70;99.90
66920;DHT22;53831;52.090;17.026;2022-12-20T06:56:11;1.60;99.90
66920;DHT22;53831;52.090;17.026;2022-12-20T06:57:13;1.70;99.90
66920;DHT22;53831;52.090;17.026;2022-12-20T06:58:18;1.60;99.90
66920;DHT22;53831;52.090;17.026;2022-12-20T06:59:21;1.60;99.90